createdAt,value
2017-09-06T00:10:00.852Z,18.7
2017-09-06T00:20:14.623Z,18.7
2017-09-06T00:30:30.315Z,18.6
2017-09-06T00:40:46.023Z,18.5
2017-09-06T00:51:01.452Z,18.4
2017-09-06T01:01:17.422Z,18.3
2017-09-06T01:11:33.489Z,18.2
2017-09-06T01:21:48.880Z,18.1
2017-09-06T01:32:05.010Z,18.0
2017-09-06T01:42:21.233Z,17.9
2017-09-06T01:53:07.964Z,17.7
2017-09-06T02:03:24.376Z,17.6
2017-09-06T02:13:40.696Z,17.5
2017-09-06T02:23:56.481Z,17.4
2017-09-06T02:34:11.742Z,17.3
2017-09-06T02:44:27.267Z,17.2
2017-09-06T02:54:43.190Z,17.2
2017-09-06T03:04:59.547Z,17.1
2017-09-06T03:15:15.554Z,17.1
2017-09-06T03:25:32.069Z,17.2
2017-09-06T03:35:47.958Z,17.2
2017-09-06T03:46:03.300Z,17.2
2017-09-06T03:56:19.439Z,17.2
2017-09-06T04:06:34.849Z,17.3
2017-09-06T04:16:50.386Z,17.3
2017-09-06T04:27:06.918Z,17.3
2017-09-06T04:37:22.811Z,17.4
2017-09-06T04:47:39.448Z,17.3
2017-09-06T04:57:55.394Z,17.3
2017-09-06T05:08:13.844Z,17.3
2017-09-06T05:18:29.507Z,17.3
2017-09-06T05:28:45.756Z,17.3
2017-09-06T05:39:13.620Z,17.3
2017-09-06T05:49:29.299Z,17.4
2017-09-06T05:59:45.328Z,17.4
2017-09-06T06:10:01.951Z,17.4
2017-09-06T06:20:18.078Z,17.5
2017-09-06T06:30:34.202Z,17.6
2017-09-06T06:40:50.644Z,17.7
2017-09-06T06:51:07.031Z,17.7
2017-09-06T07:01:23.450Z,17.7
2017-09-06T07:11:39.754Z,17.7
2017-09-06T07:21:58.910Z,17.8
2017-09-06T07:32:15.229Z,17.9
2017-09-06T07:42:31.225Z,17.9
2017-09-06T07:53:18.074Z,17.9
2017-09-06T08:03:38.069Z,17.9
2017-09-06T08:13:54.355Z,18.0
2017-09-06T08:24:10.626Z,18.2
2017-09-06T08:34:26.851Z,18.3
2017-09-06T08:45:03.389Z,18.3
2017-09-06T08:55:20.400Z,18.5
2017-09-06T09:05:36.551Z,18.8
2017-09-06T09:15:51.906Z,18.9
2017-09-06T09:26:07.922Z,18.8
2017-09-06T09:36:24.461Z,18.6
2017-09-06T09:46:42.289Z,18.5
2017-09-06T09:57:28.668Z,18.8
2017-09-06T10:07:47.515Z,18.8
2017-09-06T10:18:03.099Z,20.1
2017-09-06T10:28:19.604Z,22.0
2017-09-06T10:38:35.471Z,23.7
2017-09-06T10:48:52.026Z,24.6
2017-09-06T10:59:12.543Z,25.1
2017-09-06T11:09:30.209Z,25.2
2017-09-06T11:19:46.338Z,25.2
2017-09-06T11:30:02.575Z,25.2
2017-09-06T11:40:18.978Z,25.4
2017-09-06T11:50:35.004Z,25.6
2017-09-06T12:00:51.447Z,25.3
2017-09-06T12:11:38.021Z,23.8
2017-09-06T12:21:54.170Z,23.8
2017-09-06T12:32:10.603Z,23.5
2017-09-06T12:42:26.558Z,23.5
2017-09-06T12:52:42.811Z,23.2
2017-09-06T13:02:59.085Z,22.8
2017-09-06T13:13:15.090Z,22.3
2017-09-06T13:23:31.578Z,21.9
2017-09-06T13:33:47.723Z,21.5
2017-09-06T13:44:03.976Z,21.1
2017-09-06T13:54:20.399Z,20.8
2017-09-06T14:04:37.103Z,20.5
2017-09-06T14:14:52.682Z,20.3
2017-09-06T14:25:05.976Z,20.3
2017-09-06T14:35:22.129Z,20.4
2017-09-06T14:45:40.397Z,20.5
2017-09-06T14:55:56.641Z,20.4
2017-09-06T15:06:12.612Z,20.2
2017-09-06T15:16:28.919Z,20.2
2017-09-06T15:26:45.114Z,20.4
2017-09-06T15:37:01.120Z,20.5
2017-09-06T15:47:17.204Z,20.4
2017-09-06T15:57:33.445Z,20.2
2017-09-06T16:07:49.913Z,20.1
2017-09-06T16:18:05.909Z,19.9
2017-09-06T16:28:22.116Z,19.6
2017-09-06T16:39:03.527Z,19.3
2017-09-06T16:49:19.861Z,19.0
2017-09-06T16:59:38.418Z,18.8
2017-09-06T17:09:54.901Z,18.7
2017-09-06T17:20:11.479Z,18.4
2017-09-06T17:30:27.289Z,18.2
2017-09-06T17:40:43.451Z,17.9
2017-09-06T17:51:00.081Z,17.6
2017-09-06T18:01:16.069Z,17.4
2017-09-06T18:11:32.383Z,17.1
2017-09-06T18:21:48.684Z,16.9
2017-09-06T18:32:05.071Z,16.6
2017-09-06T18:42:21.045Z,16.3
2017-09-06T18:52:37.707Z,16.1
2017-09-06T19:02:53.378Z,15.8
2017-09-06T19:13:09.890Z,15.6
2017-09-06T19:23:25.931Z,15.4
2017-09-06T19:33:42.276Z,15.2
2017-09-06T19:43:58.589Z,15.0
2017-09-06T19:54:14.689Z,14.8
2017-09-06T20:04:30.976Z,14.6
2017-09-06T20:14:47.230Z,14.5
2017-09-06T20:25:03.362Z,14.4
2017-09-06T20:35:20.052Z,14.3
2017-09-06T20:45:35.954Z,14.2
2017-09-06T20:55:52.392Z,14.1
2017-09-06T21:06:08.742Z,14.0
2017-09-06T21:16:24.768Z,14.0
2017-09-06T21:26:40.809Z,13.9
2017-09-06T21:36:57.015Z,13.9
2017-09-06T21:47:13.763Z,13.8
2017-09-06T21:57:29.957Z,13.7
2017-09-06T22:07:45.981Z,13.6
2017-09-06T22:18:02.381Z,13.6
2017-09-06T22:28:18.423Z,13.6
2017-09-06T22:38:34.620Z,13.5
2017-09-06T22:49:21.355Z,13.4
2017-09-06T22:59:37.106Z,13.5
2017-09-06T23:09:53.010Z,13.4
2017-09-06T23:20:09.259Z,13.4
2017-09-06T23:30:25.554Z,13.4
2017-09-06T23:40:41.672Z,13.4
2017-09-06T23:50:57.639Z,13.4
